sensor_id;sensor_type;location;lat;lon;timestamp;temperature;humidity
35495;DHT22;21608;49.300;6.846;2022-08-27T00:02:21;25.80;51.80
35495;DHT22;21608;49.300;6.846;2022-08-27T00:05:23;25.80;51.80
35495;DHT22;21608;49.300;6.846;2022-08-27T00:08:25;25.80;51.80
35495;DHT22;21608;49.300;6.846;2022-08-27T00:11:27;25.80;51.90
35495;DHT22;21608;49.300;6.846;2022-08-27T00:14:29;25.80;52.00
35495;DHT22;21608;49.300;6.846;2022-08-27T00:17:32;25.80;51.90
35495;DHT22;21608;49.300;6.846;2022-08-27T00:20:33;25.80;51.90
35495;DHT22;21608;49.300;6.846;2022-08-27T00:23:36;25.80;52.00
35495;DHT22;21608;49.300;6.846;2022-08-27T00:26:39;25.80;52.00
35495;DHT22;21608;49.300;6.846;2022-08-27T00:29:45;25.80;52.00
35495;DHT22;21608;49.300;6.846;2022-08-27T00:32:47;25.70;52.00
35495;DHT22;21608;49.300;6.846;2022-08-27T00:35:49;25.80;52.00
35495;DHT22;21608;49.300;6.846;2022-08-27T00:38:51;25.80;52.00
35495;DHT22;21608;49.300;6.846;2022-08-27T00:41:54;25.70;52.00
35495;DHT22;21608;49.300;6.846;2022-08-27T00:44:56;25.70;51.90
35495;DHT22;21608;49.300;6.846;2022-08-27T00:48:00;25.70;52.00
35495;DHT22;21608;49.300;6.846;2022-08-27T00:51:02;25.70;52.00
35495;DHT22;21608;49.300;6.846;2022-08-27T00:54:06;25.70;51.90
35495;DHT22;21608;49.300;6.846;2022-08-27T00:57:08;25.80;52.10
35495;DHT22;21608;49.300;6.846;2022-08-27T01:00:15;25.70;52.10
35495;DHT22;21608;49.300;6.846;2022-08-27T01:03:16;25.70;52.10
35495;DHT22;21608;49.300;6.846;2022-08-27T01:06:19;25.70;52.00
35495;DHT22;21608;49.300;6.846;2022-08-27T01:09:22;25.70;52.00
35495;DHT22;21608;49.300;6.846;2022-08-27T01:12:24;25.70;52.00
35495;DHT22;21608;49.300;6.846;2022-08-27T01:15:28;25.70;52.00
35495;DHT22;21608;49.300;6.846;2022-08-27T01:18:32;25.70;52.00
35495;DHT22;21608;49.300;6.846;2022-08-27T01:21:52;25.70;52.10
35495;DHT22;21608;49.300;6.846;2022-08-27T01:25:09;25.70;52.10
35495;DHT22;21608;49.300;6.846;2022-08-27T01:28:13;25.70;52.10
35495;DHT22;21608;49.300;6.846;2022-08-27T01:31:15;25.70;52.10
35495;DHT22;21608;49.300;6.846;2022-08-27T01:34:17;25.70;52.00
35495;DHT22;21608;49.300;6.846;2022-08-27T01:37:20;25.70;52.00
35495;DHT22;21608;49.300;6.846;2022-08-27T01:40:24;25.70;52.00
35495;DHT22;21608;49.300;6.846;2022-08-27T01:43:27;25.70;52.00
35495;DHT22;21608;49.300;6.846;2022-08-27T01:46:30;25.70;52.00
35495;DHT22;21608;49.300;6.846;2022-08-27T01:49:32;25.70;52.20
35495;DHT22;21608;49.300;6.846;2022-08-27T01:52:34;25.70;52.10
35495;DHT22;21608;49.300;6.846;2022-08-27T01:55:37;25.70;52.20
35495;DHT22;21608;49.300;6.846;2022-08-27T01:58:41;25.70;52.20
35495;DHT22;21608;49.300;6.846;2022-08-27T02:01:44;25.70;52.20
35495;DHT22;21608;49.300;6.846;2022-08-27T02:04:46;25.60;52.10
35495;DHT22;21608;49.300;6.846;2022-08-27T02:07:48;25.70;51.80
35495;DHT22;21608;49.300;6.846;2022-08-27T02:10:50;25.60;52.20
35495;DHT22;21608;49.300;6.846;2022-08-27T02:13:52;25.70;52.20
35495;DHT22;21608;49.300;6.846;2022-08-27T02:16:55;25.70;52.20
35495;DHT22;21608;49.300;6.846;2022-08-27T02:19:57;25.70;52.20
35495;DHT22;21608;49.300;6.846;2022-08-27T02:22:59;25.70;52.20
35495;DHT22;21608;49.300;6.846;2022-08-27T02:26:01;25.70;52.20
35495;DHT22;21608;49.300;6.846;2022-08-27T02:29:04;25.60;52.20
35495;DHT22;21608;49.300;6.846;2022-08-27T02:32:06;25.70;52.20
35495;DHT22;21608;49.300;6.846;2022-08-27T02:35:23;25.70;52.20
35495;DHT22;21608;49.300;6.846;2022-08-27T02:38:26;25.60;52.20
35495;DHT22;21608;49.300;6.846;2022-08-27T02:41:27;25.70;52.30
35495;DHT22;21608;49.300;6.846;2022-08-27T02:44:30;25.60;52.20
35495;DHT22;21608;49.300;6.846;2022-08-27T02:47:33;25.60;52.30
35495;DHT22;21608;49.300;6.846;2022-08-27T02:50:36;25.60;52.30
35495;DHT22;21608;49.300;6.846;2022-08-27T02:53:38;25.60;52.30
35495;DHT22;21608;49.300;6.846;2022-08-27T02:56:40;25.60;52.30
35495;DHT22;21608;49.300;6.846;2022-08-27T02:59:42;25.60;52.30
35495;DHT22;21608;49.300;6.846;2022-08-27T03:02:44;25.60;52.30
35495;DHT22;21608;49.300;6.846;2022-08-27T03:05:46;25.60;52.30
35495;DHT22;21608;49.300;6.846;2022-08-27T03:08:48;25.60;52.30
35495;DHT22;21608;49.300;6.846;2022-08-27T03:11:54;25.60;52.30
35495;DHT22;21608;49.300;6.846;2022-08-27T03:14:56;25.60;52.30
35495;DHT22;21608;49.300;6.846;2022-08-27T03:17:58;25.60;52.30
35495;DHT22;21608;49.300;6.846;2022-08-27T03:21:21;25.60;52.30
35495;DHT22;21608;49.300;6.846;2022-08-27T03:24:24;25.60;52.40
35495;DHT22;21608;49.300;6.846;2022-08-27T03:27:26;25.60;52.30
35495;DHT22;21608;49.300;6.846;2022-08-27T03:30:29;25.60;52.40
35495;DHT22;21608;49.300;6.846;2022-08-27T03:33:33;25.60;52.40
35495;DHT22;21608;49.300;6.846;2022-08-27T03:36:36;25.60;52.50
35495;DHT22;21608;49.300;6.846;2022-08-27T03:39:38;25.60;52.50
35495;DHT22;21608;49.300;6.846;2022-08-27T03:42:40;25.60;52.50
35495;DHT22;21608;49.300;6.846;2022-08-27T03:45:43;25.60;52.50
35495;DHT22;21608;49.300;6.846;2022-08-27T03:49:02;25.60;52.50
35495;DHT22;21608;49.300;6.846;2022-08-27T03:52:04;25.60;52.50
35495;DHT22;21608;49.300;6.846;2022-08-27T03:55:07;25.60;52.50
35495;DHT22;21608;49.300;6.846;2022-08-27T03:58:10;25.60;52.60
35495;DHT22;21608;49.300;6.846;2022-08-27T04:01:12;25.60;52.50
35495;DHT22;21608;49.300;6.846;2022-08-27T04:04:14;25.60;52.50
35495;DHT22;21608;49.300;6.846;2022-08-27T04:07:16;25.60;53.10
35495;DHT22;21608;49.300;6.846;2022-08-27T04:10:19;25.60;52.50
35495;DHT22;21608;49.300;6.846;2022-08-27T04:13:22;25.60;52.50
35495;DHT22;21608;49.300;6.846;2022-08-27T04:16:24;25.60;52.50
35495;DHT22;21608;49.300;6.846;2022-08-27T04:19:27;25.60;52.60
35495;DHT22;21608;49.300;6.846;2022-08-27T04:22:33;25.60;52.50
35495;DHT22;21608;49.300;6.846;2022-08-27T04:25:38;25.60;52.50
35495;DHT22;21608;49.300;6.846;2022-08-27T04:28:40;25.60;52.50
35495;DHT22;21608;49.300;6.846;2022-08-27T04:31:49;25.60;52.60
35495;DHT22;21608;49.300;6.846;2022-08-27T04:34:55;25.60;52.60
35495;DHT22;21608;49.300;6.846;2022-08-27T04:37:57;25.60;52.60
35495;DHT22;21608;49.300;6.846;2022-08-27T04:41:07;25.60;52.60
35495;DHT22;21608;49.300;6.846;2022-08-27T04:44:31;25.60;52.70
35495;DHT22;21608;49.300;6.846;2022-08-27T04:47:34;25.60;52.60
35495;DHT22;21608;49.300;6.846;2022-08-27T04:50:42;25.60;52.70
35495;DHT22;21608;49.300;6.846;2022-08-27T04:53:44;25.60;52.70
35495;DHT22;21608;49.300;6.846;2022-08-27T04:56:46;25.50;52.70
35495;DHT22;21608;49.300;6.846;2022-08-27T04:59:47;25.50;52.70
35495;DHT22;21608;49.300;6.846;2022-08-27T05:02:49;25.50;52.70
35495;DHT22;21608;49.300;6.846;2022-08-27T05:05:52;25.60;52.70
35495;DHT22;21608;49.300;6.846;2022-08-27T05:08:55;25.60;52.70
35495;DHT22;21608;49.300;6.846;2022-08-27T05:11:57;25.60;52.70
35495;DHT22;21608;49.300;6.846;2022-08-27T05:14:59;25.60;52.70
35495;DHT22;21608;49.300;6.846;2022-08-27T05:18:01;25.60;52.60
35495;DHT22;21608;49.300;6.846;2022-08-27T05:21:05;25.50;52.60
35495;DHT22;21608;49.300;6.846;2022-08-27T05:24:08;25.60;52.60
35495;DHT22;21608;49.300;6.846;2022-08-27T05:27:10;25.50;52.70
35495;DHT22;21608;49.300;6.846;2022-08-27T05:30:13;25.50;52.70
35495;DHT22;21608;49.300;6.846;2022-08-27T05:33:18;25.60;52.70
35495;DHT22;21608;49.300;6.846;2022-08-27T05:36:26;25.50;52.80
35495;DHT22;21608;49.300;6.846;2022-08-27T05:39:28;25.50;52.70
35495;DHT22;21608;49.300;6.846;2022-08-27T05:42:30;25.50;52.80
35495;DHT22;21608;49.300;6.846;2022-08-27T05:45:38;25.50;52.80
35495;DHT22;21608;49.300;6.846;2022-08-27T05:48:41;25.50;52.70
35495;DHT22;21608;49.300;6.846;2022-08-27T05:51:43;25.50;52.80
35495;DHT22;21608;49.300;6.846;2022-08-27T05:54:45;25.50;52.80
35495;DHT22;21608;49.300;6.846;2022-08-27T05:57:47;25.50;52.70
35495;DHT22;21608;49.300;6.846;2022-08-27T06:00:49;25.50;52.70
35495;DHT22;21608;49.300;6.846;2022-08-27T06:04:11;25.50;52.70
35495;DHT22;21608;49.300;6.846;2022-08-27T06:07:18;25.50;52.80
35495;DHT22;21608;49.300;6.846;2022-08-27T06:10:20;25.50;52.70
35495;DHT22;21608;49.300;6.846;2022-08-27T06:13:23;25.50;53.30
35495;DHT22;21608;49.300;6.846;2022-08-27T06:16:25;25.50;52.70
35495;DHT22;21608;49.300;6.846;2022-08-27T06:19:26;25.50;52.70
35495;DHT22;21608;49.300;6.846;2022-08-27T06:22:28;25.50;52.70
35495;DHT22;21608;49.300;6.846;2022-08-27T06:25:30;25.50;52.80
35495;DHT22;21608;49.300;6.846;2022-08-27T06:28:35;25.50;52.70
35495;DHT22;21608;49.300;6.846;2022-08-27T06:31:38;25.50;52.60
35495;DHT22;21608;49.300;6.846;2022-08-27T06:34:41;25.50;52.60
35495;DHT22;21608;49.300;6.846;2022-08-27T06:37:43;25.50;52.70
35495;DHT22;21608;49.300;6.846;2022-08-27T06:40:45;25.50;52.70
35495;DHT22;21608;49.300;6.846;2022-08-27T06:43:46;25.50;52.70
35495;DHT22;21608;49.300;6.846;2022-08-27T06:46:49;25.50;52.70
35495;DHT22;21608;49.300;6.846;2022-08-27T06:49:51;25.50;52.70
35495;DHT22;21608;49.300;6.846;2022-08-27T06:52:52;25.50;52.60
35495;DHT22;21608;49.300;6.846;2022-08-27T06:55:54;25.50;52.60
35495;DHT22;21608;49.300;6.846;2022-08-27T06:58:59;25.50;52.70
35495;DHT22;21608;49.300;6.846;2022-08-27T07:02:02;25.50;52.50
35495;DHT22;21608;49.300;6.846;2022-08-27T07:05:05;25.50;52.70
35495;DHT22;21608;49.300;6.846;2022-08-27T07:08:08;25.50;52.70
35495;DHT22;21608;49.300;6.846;2022-08-27T07:11:12;25.50;52.70
35495;DHT22;21608;49.300;6.846;2022-08-27T07:14:15;25.50;52.80
35495;DHT22;21608;49.300;6.846;2022-08-27T07:17:17;25.50;52.80
35495;DHT22;21608;49.300;6.846;2022-08-27T07:20:20;25.50;52.80
35495;DHT22;21608;49.300;6.846;2022-08-27T07:23:22;25.50;52.80
35495;DHT22;21608;49.300;6.846;2022-08-27T07:26:24;25.50;52.70
35495;DHT22;21608;49.300;6.846;2022-08-27T07:29:26;25.50;52.60
35495;DHT22;21608;49.300;6.846;2022-08-27T07:32:32;25.50;52.70
35495;DHT22;21608;49.300;6.846;2022-08-27T07:35:34;25.50;52.60
35495;DHT22;21608;49.300;6.846;2022-08-27T07:38:36;25.50;52.60
35495;DHT22;21608;49.300;6.846;2022-08-27T07:41:38;25.50;53.00
35495;DHT22;21608;49.300;6.846;2022-08-27T07:44:59;25.50;53.00
35495;DHT22;21608;49.300;6.846;2022-08-27T07:48:01;25.50;52.90
35495;DHT22;21608;49.300;6.846;2022-08-27T07:51:03;25.40;53.00
35495;DHT22;21608;49.300;6.846;2022-08-27T07:54:05;25.40;52.90
35495;DHT22;21608;49.300;6.846;2022-08-27T07:57:10;25.30;53.10
35495;DHT22;21608;49.300;6.846;2022-08-27T08:00:13;25.20;53.20
35495;DHT22;21608;49.300;6.846;2022-08-27T08:03:15;25.20;53.10
35495;DHT22;21608;49.300;6.846;2022-08-27T08:06:17;25.20;53.50
35495;DHT22;21608;49.300;6.846;2022-08-27T08:09:20;25.20;53.50
35495;DHT22;21608;49.300;6.846;2022-08-27T08:12:23;25.20;53.30
35495;DHT22;21608;49.300;6.846;2022-08-27T08:15:27;25.20;53.50
35495;DHT22;21608;49.300;6.846;2022-08-27T08:18:29;25.20;53.30
35495;DHT22;21608;49.300;6.846;2022-08-27T08:21:31;25.20;53.70
35495;DHT22;21608;49.300;6.846;2022-08-27T08:24:34;25.10;53.50
35495;DHT22;21608;49.300;6.846;2022-08-27T08:27:36;25.20;53.40
35495;DHT22;21608;49.300;6.846;2022-08-27T08:30:41;25.20;53.30
35495;DHT22;21608;49.300;6.846;2022-08-27T08:33:44;25.20;53.10
35495;DHT22;21608;49.300;6.846;2022-08-27T08:36:47;25.30;53.10
35495;DHT22;21608;49.300;6.846;2022-08-27T08:39:55;25.30;52.90
35495;DHT22;21608;49.300;6.846;2022-08-27T08:42:58;25.30;52.80
35495;DHT22;21608;49.300;6.846;2022-08-27T08:46:15;25.30;52.90
35495;DHT22;21608;49.300;6.846;2022-08-27T08:55:50;25.30;52.90
35495;DHT22;21608;49.300;6.846;2022-08-27T08:59:12;25.30;52.90
35495;DHT22;21608;49.300;6.846;2022-08-27T09:02:15;25.40;52.90
35495;DHT22;21608;49.300;6.846;2022-08-27T09:05:17;25.30;52.80
35495;DHT22;21608;49.300;6.846;2022-08-27T09:08:40;25.40;52.80
35495;DHT22;21608;49.300;6.846;2022-08-27T09:11:59;25.30;52.70
35495;DHT22;21608;49.300;6.846;2022-08-27T09:15:06;25.40;52.80
35495;DHT22;21608;49.300;6.846;2022-08-27T09:18:14;25.40;52.80
35495;DHT22;21608;49.300;6.846;2022-08-27T09:28:15;25.40;52.90
35495;DHT22;21608;49.300;6.846;2022-08-27T09:31:36;25.40;52.90
35495;DHT22;21608;49.300;6.846;2022-08-27T09:34:43;25.40;52.80
35495;DHT22;21608;49.300;6.846;2022-08-27T09:37:47;25.30;52.60
35495;DHT22;21608;49.300;6.846;2022-08-27T09:40:52;25.30;53.40
35495;DHT22;21608;49.300;6.846;2022-08-27T09:43:58;25.30;52.50
35495;DHT22;21608;49.300;6.846;2022-08-27T09:47:02;25.30;52.40
35495;DHT22;21608;49.300;6.846;2022-08-27T09:50:07;25.30;52.40
35495;DHT22;21608;49.300;6.846;2022-08-27T09:53:52;25.30;52.40
35495;DHT22;21608;49.300;6.846;2022-08-27T09:56:47;25.30;52.30
35495;DHT22;21608;49.300;6.846;2022-08-27T09:59:52;25.30;52.40
35495;DHT22;21608;49.300;6.846;2022-08-27T10:02:59;25.30;52.40
35495;DHT22;21608;49.300;6.846;2022-08-27T10:06:03;25.30;52.40
35495;DHT22;21608;49.300;6.846;2022-08-27T10:09:33;25.30;52.30
35495;DHT22;21608;49.300;6.846;2022-08-27T10:12:55;25.30;52.20
35495;DHT22;21608;49.300;6.846;2022-08-27T10:26:31;25.40;52.10
35495;DHT22;21608;49.300;6.846;2022-08-27T10:29:53;25.40;52.00
35495;DHT22;21608;49.300;6.846;2022-08-27T10:33:17;25.40;52.50
35495;DHT22;21608;49.300;6.846;2022-08-27T10:49:43;25.40;51.90
35495;DHT22;21608;49.300;6.846;2022-08-27T10:53:10;25.40;51.90
35495;DHT22;21608;49.300;6.846;2022-08-27T10:56:20;25.40;51.90
35495;DHT22;21608;49.300;6.846;2022-08-27T11:03:08;25.50;51.90
35495;DHT22;21608;49.300;6.846;2022-08-27T11:06:22;25.50;51.90
35495;DHT22;21608;49.300;6.846;2022-08-27T11:09:43;25.50;51.70
35495;DHT22;21608;49.300;6.846;2022-08-27T11:12:49;25.50;51.80
35495;DHT22;21608;49.300;6.846;2022-08-27T11:15:54;25.50;51.90
35495;DHT22;21608;49.300;6.846;2022-08-27T11:19:01;25.40;51.80
35495;DHT22;21608;49.300;6.846;2022-08-27T11:22:12;25.50;51.90
35495;DHT22;21608;49.300;6.846;2022-08-27T11:25:32;25.50;52.00
35495;DHT22;21608;49.300;6.846;2022-08-27T11:28:45;25.50;52.00
35495;DHT22;21608;49.300;6.846;2022-08-27T11:32:03;25.40;51.90
35495;DHT22;21608;49.300;6.846;2022-08-27T11:45:37;25.50;52.00
35495;DHT22;21608;49.300;6.846;2022-08-27T11:48:41;25.40;52.30
35495;DHT22;21608;49.300;6.846;2022-08-27T11:51:44;25.50;51.90
35495;DHT22;21608;49.300;6.846;2022-08-27T11:54:56;25.50;52.50
35495;DHT22;21608;49.300;6.846;2022-08-27T12:01:27;25.40;51.70
35495;DHT22;21608;49.300;6.846;2022-08-27T12:07:34;25.50;51.80
35495;DHT22;21608;49.300;6.846;2022-08-27T12:17:54;25.50;51.80
35495;DHT22;21608;49.300;6.846;2022-08-27T12:24:17;25.50;51.90
35495;DHT22;21608;49.300;6.846;2022-08-27T12:30:40;25.50;51.70
35495;DHT22;21608;49.300;6.846;2022-08-27T12:33:52;25.50;51.70
35495;DHT22;21608;49.300;6.846;2022-08-27T12:36:55;25.50;51.70
35495;DHT22;21608;49.300;6.846;2022-08-27T12:39:59;25.50;51.80
35495;DHT22;21608;49.300;6.846;2022-08-27T12:43:16;25.50;51.80
35495;DHT22;21608;49.300;6.846;2022-08-27T12:46:19;25.50;51.70
35495;DHT22;21608;49.300;6.846;2022-08-27T12:49:25;25.50;51.70
35495;DHT22;21608;49.300;6.846;2022-08-27T13:00:02;25.50;51.80
35495;DHT22;21608;49.300;6.846;2022-08-27T13:03:23;25.50;51.80
35495;DHT22;21608;49.300;6.846;2022-08-27T13:06:33;25.50;51.70
35495;DHT22;21608;49.300;6.846;2022-08-27T13:09:37;25.50;51.70
35495;DHT22;21608;49.300;6.846;2022-08-27T13:12:41;25.50;51.70
35495;DHT22;21608;49.300;6.846;2022-08-27T13:15:52;25.50;51.70
35495;DHT22;21608;49.300;6.846;2022-08-27T13:18:56;25.50;51.70
35495;DHT22;21608;49.300;6.846;2022-08-27T13:21:58;25.50;51.70
35495;DHT22;21608;49.300;6.846;2022-08-27T13:25:02;25.50;51.60
35495;DHT22;21608;49.300;6.846;2022-08-27T13:28:12;25.50;51.70
35495;DHT22;21608;49.300;6.846;2022-08-27T13:31:15;25.50;51.60
35495;DHT22;21608;49.300;6.846;2022-08-27T13:34:22;25.50;51.50
35495;DHT22;21608;49.300;6.846;2022-08-27T13:37:33;25.50;51.50
35495;DHT22;21608;49.300;6.846;2022-08-27T13:40:49;25.50;51.50
35495;DHT22;21608;49.300;6.846;2022-08-27T13:43:52;25.50;51.40
35495;DHT22;21608;49.300;6.846;2022-08-27T13:47:03;25.50;51.60
35495;DHT22;21608;49.300;6.846;2022-08-27T13:50:22;25.50;51.50
35495;DHT22;21608;49.300;6.846;2022-08-27T13:53:27;25.50;51.50
35495;DHT22;21608;49.300;6.846;2022-08-27T13:59:50;25.50;51.60
35495;DHT22;21608;49.300;6.846;2022-08-27T14:02:53;25.50;51.50
35495;DHT22;21608;49.300;6.846;2022-08-27T14:05:58;25.50;51.50
35495;DHT22;21608;49.300;6.846;2022-08-27T14:12:32;25.50;51.40
35495;DHT22;21608;49.300;6.846;2022-08-27T14:15:40;25.50;51.50
35495;DHT22;21608;49.300;6.846;2022-08-27T14:18:54;25.50;51.60
35495;DHT22;21608;49.300;6.846;2022-08-27T14:22:00;25.50;51.40
35495;DHT22;21608;49.300;6.846;2022-08-27T14:25:02;25.50;52.00
35495;DHT22;21608;49.300;6.846;2022-08-27T14:28:04;25.50;51.40
35495;DHT22;21608;49.300;6.846;2022-08-27T14:31:06;25.50;51.50
35495;DHT22;21608;49.300;6.846;2022-08-27T14:34:08;25.50;51.50
35495;DHT22;21608;49.300;6.846;2022-08-27T14:37:10;25.50;51.30
35495;DHT22;21608;49.300;6.846;2022-08-27T14:40:13;25.50;51.40
35495;DHT22;21608;49.300;6.846;2022-08-27T14:43:18;25.60;51.50
35495;DHT22;21608;49.300;6.846;2022-08-27T14:46:26;25.60;51.40
35495;DHT22;21608;49.300;6.846;2022-08-27T14:49:33;25.50;51.40
35495;DHT22;21608;49.300;6.846;2022-08-27T14:52:37;25.50;51.50
35495;DHT22;21608;49.300;6.846;2022-08-27T14:55:42;25.50;51.50
35495;DHT22;21608;49.300;6.846;2022-08-27T14:58:52;25.50;51.40
35495;DHT22;21608;49.300;6.846;2022-08-27T15:01:54;25.50;51.50
35495;DHT22;21608;49.300;6.846;2022-08-27T15:04:57;25.50;51.30
35495;DHT22;21608;49.300;6.846;2022-08-27T15:07:59;25.60;51.30
35495;DHT22;21608;49.300;6.846;2022-08-27T15:11:01;25.60;51.40
35495;DHT22;21608;49.300;6.846;2022-08-27T15:17:32;25.60;51.40
35495;DHT22;21608;49.300;6.846;2022-08-27T15:20:36;25.60;51.40
35495;DHT22;21608;49.300;6.846;2022-08-27T15:23:38;25.60;51.20
35495;DHT22;21608;49.300;6.846;2022-08-27T15:26:40;25.60;51.50
35495;DHT22;21608;49.300;6.846;2022-08-27T15:29:42;25.60;51.20
35495;DHT22;21608;49.300;6.846;2022-08-27T15:32:46;25.60;51.40
35495;DHT22;21608;49.300;6.846;2022-08-27T15:35:48;25.60;51.20
35495;DHT22;21608;49.300;6.846;2022-08-27T15:38:50;25.60;51.40
35495;DHT22;21608;49.300;6.846;2022-08-27T15:41:52;25.60;51.30
35495;DHT22;21608;49.300;6.846;2022-08-27T15:45:08;25.60;51.40
35495;DHT22;21608;49.300;6.846;2022-08-27T15:48:10;25.60;51.20
35495;DHT22;21608;49.300;6.846;2022-08-27T15:51:13;25.60;51.20
35495;DHT22;21608;49.300;6.846;2022-08-27T15:54:16;25.60;51.20
35495;DHT22;21608;49.300;6.846;2022-08-27T15:57:19;25.60;51.40
35495;DHT22;21608;49.300;6.846;2022-08-27T16:00:22;25.60;51.50
35495;DHT22;21608;49.300;6.846;2022-08-27T16:03:24;25.50;51.30
35495;DHT22;21608;49.300;6.846;2022-08-27T16:06:36;25.60;51.90
35495;DHT22;21608;49.300;6.846;2022-08-27T16:09:39;25.60;51.40
35495;DHT22;21608;49.300;6.846;2022-08-27T16:12:41;25.60;51.60
35495;DHT22;21608;49.300;6.846;2022-08-27T16:15:43;25.60;51.40
35495;DHT22;21608;49.300;6.846;2022-08-27T16:18:45;25.60;51.50
35495;DHT22;21608;49.300;6.846;2022-08-27T16:21:46;25.60;51.50
35495;DHT22;21608;49.300;6.846;2022-08-27T16:24:51;25.60;51.50
35495;DHT22;21608;49.300;6.846;2022-08-27T16:27:53;25.60;51.60
35495;DHT22;21608;49.300;6.846;2022-08-27T16:30:56;25.60;51.60
35495;DHT22;21608;49.300;6.846;2022-08-27T16:33:58;25.60;51.70
35495;DHT22;21608;49.300;6.846;2022-08-27T16:37:00;25.50;51.70
35495;DHT22;21608;49.300;6.846;2022-08-27T16:40:02;25.50;51.70
35495;DHT22;21608;49.300;6.846;2022-08-27T16:43:04;25.50;51.70
35495;DHT22;21608;49.300;6.846;2022-08-27T16:46:06;25.60;51.50
35495;DHT22;21608;49.300;6.846;2022-08-27T16:49:08;25.60;51.50
35495;DHT22;21608;49.300;6.846;2022-08-27T16:52:28;25.60;51.60
35495;DHT22;21608;49.300;6.846;2022-08-27T16:55:30;25.60;51.50
35495;DHT22;21608;49.300;6.846;2022-08-27T16:58:33;25.60;51.60
35495;DHT22;21608;49.300;6.846;2022-08-27T17:01:35;25.60;51.60
35495;DHT22;21608;49.300;6.846;2022-08-27T17:04:37;25.60;51.50
35495;DHT22;21608;49.300;6.846;2022-08-27T17:07:43;25.50;51.70
35495;DHT22;21608;49.300;6.846;2022-08-27T17:10:53;25.50;51.60
35495;DHT22;21608;49.300;6.846;2022-08-27T17:13:59;25.50;51.70
35495;DHT22;21608;49.300;6.846;2022-08-27T17:17:04;25.50;51.80
35495;DHT22;21608;49.300;6.846;2022-08-27T17:20:07;25.50;51.70
35495;DHT22;21608;49.300;6.846;2022-08-27T17:26:32;25.50;51.70
35495;DHT22;21608;49.300;6.846;2022-08-27T17:29:34;25.50;51.60
35495;DHT22;21608;49.300;6.846;2022-08-27T17:32:38;25.50;51.60
35495;DHT22;21608;49.300;6.846;2022-08-27T17:35:42;25.50;51.50
35495;DHT22;21608;49.300;6.846;2022-08-27T17:38:44;25.50;51.50
35495;DHT22;21608;49.300;6.846;2022-08-27T17:41:48;25.50;51.50
35495;DHT22;21608;49.300;6.846;2022-08-27T17:44:51;25.50;51.50
35495;DHT22;21608;49.300;6.846;2022-08-27T17:47:53;25.50;51.40
35495;DHT22;21608;49.300;6.846;2022-08-27T17:50:55;25.50;51.50
35495;DHT22;21608;49.300;6.846;2022-08-27T17:53:57;25.50;51.40
35495;DHT22;21608;49.300;6.846;2022-08-27T17:57:04;25.50;51.40
35495;DHT22;21608;49.300;6.846;2022-08-27T18:00:12;25.50;51.40
35495;DHT22;21608;49.300;6.846;2022-08-27T18:03:17;25.50;51.50
35495;DHT22;21608;49.300;6.846;2022-08-27T18:06:19;25.50;51.30
35495;DHT22;21608;49.300;6.846;2022-08-27T18:09:21;25.50;51.30
35495;DHT22;21608;49.300;6.846;2022-08-27T18:12:25;25.50;51.30
35495;DHT22;21608;49.300;6.846;2022-08-27T18:15:30;25.50;51.30
35495;DHT22;21608;49.300;6.846;2022-08-27T18:18:32;25.50;51.30
35495;DHT22;21608;49.300;6.846;2022-08-27T18:21:35;25.50;51.30
35495;DHT22;21608;49.300;6.846;2022-08-27T18:24:47;25.50;51.30
35495;DHT22;21608;49.300;6.846;2022-08-27T18:27:52;25.50;51.30
35495;DHT22;21608;49.300;6.846;2022-08-27T18:30:55;25.50;51.40
35495;DHT22;21608;49.300;6.846;2022-08-27T18:33:58;25.50;51.40
35495;DHT22;21608;49.300;6.846;2022-08-27T18:37:00;25.50;51.30
35495;DHT22;21608;49.300;6.846;2022-08-27T18:40:03;25.50;51.30
35495;DHT22;21608;49.300;6.846;2022-08-27T18:43:06;25.50;51.30
35495;DHT22;21608;49.300;6.846;2022-08-27T18:46:08;25.50;51.30
35495;DHT22;21608;49.300;6.846;2022-08-27T18:49:10;25.50;51.30
35495;DHT22;21608;49.300;6.846;2022-08-27T18:52:12;25.50;51.40
35495;DHT22;21608;49.300;6.846;2022-08-27T18:55:17;25.40;51.40
35495;DHT22;21608;49.300;6.846;2022-08-27T18:58:19;25.50;51.40
35495;DHT22;21608;49.300;6.846;2022-08-27T19:01:24;25.40;51.40
35495;DHT22;21608;49.300;6.846;2022-08-27T19:04:28;25.40;51.40
35495;DHT22;21608;49.300;6.846;2022-08-27T19:07:31;25.50;51.50
35495;DHT22;21608;49.300;6.846;2022-08-27T19:10:33;25.50;51.50
35495;DHT22;21608;49.300;6.846;2022-08-27T19:13:35;25.40;51.40
35495;DHT22;21608;49.300;6.846;2022-08-27T19:16:41;25.40;51.40
35495;DHT22;21608;49.300;6.846;2022-08-27T19:19:43;25.40;51.40
35495;DHT22;21608;49.300;6.846;2022-08-27T19:22:46;25.40;51.30
35495;DHT22;21608;49.300;6.846;2022-08-27T19:25:49;25.40;51.30
35495;DHT22;21608;49.300;6.846;2022-08-27T19:28:51;25.40;51.30
35495;DHT22;21608;49.300;6.846;2022-08-27T19:31:53;25.40;51.30
35495;DHT22;21608;49.300;6.846;2022-08-27T19:34:55;25.40;51.30
35495;DHT22;21608;49.300;6.846;2022-08-27T19:37:57;25.40;51.30
35495;DHT22;21608;49.300;6.846;2022-08-27T19:41:00;25.40;51.30
35495;DHT22;21608;49.300;6.846;2022-08-27T19:44:02;25.40;51.30
35495;DHT22;21608;49.300;6.846;2022-08-27T19:47:06;25.40;51.30
35495;DHT22;21608;49.300;6.846;2022-08-27T19:50:12;25.40;51.30
35495;DHT22;21608;49.300;6.846;2022-08-27T19:53:15;25.40;51.90
35495;DHT22;21608;49.300;6.846;2022-08-27T19:56:17;25.40;51.30
35495;DHT22;21608;49.300;6.846;2022-08-27T19:59:19;25.40;51.30
35495;DHT22;21608;49.300;6.846;2022-08-27T20:02:22;25.40;51.30
35495;DHT22;21608;49.300;6.846;2022-08-27T20:05:24;25.40;51.30
35495;DHT22;21608;49.300;6.846;2022-08-27T20:08:26;25.40;51.30
35495;DHT22;21608;49.300;6.846;2022-08-27T20:11:28;25.40;51.20
35495;DHT22;21608;49.300;6.846;2022-08-27T20:14:30;25.40;51.20
35495;DHT22;21608;49.300;6.846;2022-08-27T20:17:32;25.40;51.20
35495;DHT22;21608;49.300;6.846;2022-08-27T20:20:34;25.40;51.20
35495;DHT22;21608;49.300;6.846;2022-08-27T20:23:36;25.40;51.10
35495;DHT22;21608;49.300;6.846;2022-08-27T20:26:38;25.40;51.10
35495;DHT22;21608;49.300;6.846;2022-08-27T20:29:39;25.40;51.10
35495;DHT22;21608;49.300;6.846;2022-08-27T20:32:42;25.40;51.20
35495;DHT22;21608;49.300;6.846;2022-08-27T20:35:44;25.40;51.20
35495;DHT22;21608;49.300;6.846;2022-08-27T20:38:46;25.40;51.10
35495;DHT22;21608;49.300;6.846;2022-08-27T20:41:48;25.40;51.10
35495;DHT22;21608;49.300;6.846;2022-08-27T20:44:51;25.40;51.10
35495;DHT22;21608;49.300;6.846;2022-08-27T20:47:55;25.40;51.10
35495;DHT22;21608;49.300;6.846;2022-08-27T20:50:59;25.40;51.00
35495;DHT22;21608;49.300;6.846;2022-08-27T20:54:01;25.40;51.00
35495;DHT22;21608;49.300;6.846;2022-08-27T20:57:04;25.40;51.10
35495;DHT22;21608;49.300;6.846;2022-08-27T21:00:06;25.40;51.00